Time;durP1;ratioP1;P1;durP2;ratioP2;P2;SDS_P1;SDS_P2;PMS_P1;PMS_P2;Temp;Humidity;BMP_temperature;BMP_pressure;BME280_temperature;BME280_humidity;BME280_pressure;Samples;Min_cycle;Max_cycle;Signal;HPM_P1;HPM_P2
2022/03/19 00:01:23;;;;;;;21.83;11.70;;;9.60;87.70;;;;;;5092030;28;20398;-70
2022/03/19 00:04:27;;;;;;;21.92;12.40;;;9.70;87.60;;;;;;5091887;28;20043;-70
2022/03/19 00:07:32;;;;;;;22.70;11.27;;;9.90;87.10;;;;;;5091938;28;20039;-70
2022/03/19 00:10:36;;;;;;;24.00;13.82;;;10.00;86.20;;;;;;5091753;28;20039;-70
2022/03/19 00:13:40;;;;;;;20.73;11.82;;;9.90;87.70;;;;;;5092302;28;20043;-70
2022/03/19 00:16:45;;;;;;;18.83;11.60;;;9.50;89.60;;;;;;5092050;28;20054;-70
2022/03/19 00:19:49;;;;;;;20.13;11.65;;;9.40;90.10;;;;;;5092017;28;20324;-70
2022/03/19 00:22:53;;;;;;;67.03;14.30;;;9.30;90.90;;;;;;5092213;28;20410;-71
2022/03/19 00:25:57;;;;;;;22.55;12.65;;;9.20;91.30;;;;;;5092145;28;20055;-70
2022/03/19 00:29:01;;;;;;;21.17;12.10;;;9.10;91.80;;;;;;5091887;28;20470;-70
2022/03/19 00:32:06;;;;;;;21.50;12.45;;;9.00;92.40;;;;;;5091527;28;20047;-70
2022/03/19 00:35:10;;;;;;;26.50;14.13;;;8.90;92.60;;;;;;5091743;28;20062;-70
2022/03/19 00:38:14;;;;;;;25.88;12.60;;;8.80;93.00;;;;;;5091198;28;20067;-70
2022/03/19 00:41:18;;;;;;;22.25;12.25;;;8.60;93.30;;;;;;5091083;28;20106;-70
2022/03/19 00:44:22;;;;;;;25.27;12.85;;;8.60;92.10;;;;;;5091271;28;20087;-70
2022/03/19 00:47:26;;;;;;;27.42;13.30;;;8.60;92.80;;;;;;5092019;28;20063;-70
2022/03/19 00:50:30;;;;;;;23.98;12.07;;;8.80;92.60;;;;;;5091273;28;20413;-70
2022/03/19 00:53:34;;;;;;;21.30;12.90;;;8.80;92.80;;;;;;5091269;28;20035;-70
2022/03/19 00:56:38;;;;;;;23.13;11.80;;;8.80;93.10;;;;;;5091043;28;20382;-70
2022/03/19 00:59:42;;;;;;;24.30;13.38;;;8.80;93.40;;;;;;5090751;28;20043;-70
2022/03/19 01:02:46;;;;;;;23.38;13.13;;;8.80;93.70;;;;;;5091564;28;20528;-71
2022/03/19 01:05:50;;;;;;;31.63;12.65;;;8.60;94.30;;;;;;5090578;28;20067;-70
2022/03/19 01:08:54;;;;;;;24.63;12.70;;;8.50;94.30;;;;;;5090690;28;20051;-70
2022/03/19 01:11:58;;;;;;;27.38;13.13;;;8.50;93.80;;;;;;5089657;28;20035;-70
2022/03/19 01:15:03;;;;;;;21.63;12.77;;;8.60;93.30;;;;;;5090893;28;20050;-70
2022/03/19 01:18:08;;;;;;;22.17;12.68;;;8.70;93.30;;;;;;5090711;28;20055;-70
2022/03/19 01:21:11;;;;;;;24.88;12.65;;;8.70;93.30;;;;;;5090903;28;20051;-70
2022/03/19 01:24:15;;;;;;;25.92;13.55;;;8.60;93.60;;;;;;5090912;28;20062;-70
2022/03/19 01:27:20;;;;;;;20.65;11.05;;;8.60;93.90;;;;;;5091063;28;20047;-70
2022/03/19 01:30:26;;;;;;;24.77;13.23;;;8.50;93.90;;;;;;5090397;28;20051;-70
2022/03/19 01:33:31;;;;;;;27.52;14.30;;;8.50;93.90;;;;;;5090933;28;20036;-70
2022/03/19 01:36:37;;;;;;;21.05;12.07;;;8.40;94.70;;;;;;5090671;28;20047;-70
2022/03/19 01:39:41;;;;;;;23.00;13.00;;;8.40;94.60;;;;;;5090370;28;20039;-70
2022/03/19 01:42:50;;;;;;;27.65;14.13;;;8.50;94.30;;;;;;5090464;28;20051;-70
2022/03/19 01:45:57;;;;;;;26.73;13.00;;;8.40;94.60;;;;;;5090782;28;20656;-70
2022/03/19 01:49:01;;;;;;;24.33;13.10;;;8.30;94.90;;;;;;5090189;28;20340;-70
2022/03/19 01:52:07;;;;;;;28.17;13.43;;;8.20;95.10;;;;;;5090453;28;20039;-70
2022/03/19 01:55:13;;;;;;;25.50;13.00;;;8.20;95.20;;;;;;5090708;28;20055;-70
2022/03/19 01:58:17;;;;;;;26.13;12.88;;;8.20;95.50;;;;;;5090044;28;20382;-70
2022/03/19 02:01:21;;;;;;;23.35;11.88;;;8.20;95.60;;;;;;5090907;28;20039;-69
2022/03/19 02:04:25;;;;;;;18.60;10.90;;;8.40;92.80;;;;;;5090926;28;20055;-70
2022/03/19 02:07:30;;;;;;;22.27;10.98;;;8.70;92.00;;;;;;5090938;28;20051;-71
2022/03/19 02:10:35;;;;;;;25.10;12.55;;;9.00;91.50;;;;;;5090459;28;20047;-71
2022/03/19 02:13:39;;;;;;;23.58;12.75;;;8.90;93.90;;;;;;5090763;28;20509;-71
2022/03/19 02:16:44;;;;;;;24.75;14.73;;;8.80;94.30;;;;;;5090385;28;20040;-71
2022/03/19 02:19:50;;;;;;;30.35;12.48;;;8.70;94.80;;;;;;5093142;28;20059;-70
2022/03/19 02:26:18;;;;;;;20.27;11.50;;;8.40;95.20;;;;;;5093652;28;20051;-70
2022/03/19 02:29:22;;;;;;;21.40;11.25;;;8.50;93.90;;;;;;5093260;28;20498;-70
2022/03/19 02:32:27;;;;;;;19.85;11.70;;;8.50;94.50;;;;;;5092853;28;20051;-70
2022/03/19 02:35:31;;;;;;;21.40;12.00;;;8.50;95.00;;;;;;5093619;28;20043;-71
2022/03/19 02:38:35;;;;;;;22.05;12.07;;;8.40;95.10;;;;;;5093500;28;20051;-71
2022/03/19 02:41:48;;;;;;;23.70;11.52;;;8.40;94.60;;;;;;5094131;28;20051;-70
2022/03/19 02:44:52;;;;;;;19.35;10.32;;;8.40;94.70;;;;;;5093213;28;20043;-70
2022/03/19 02:47:59;;;;;;;21.02;11.95;;;8.40;94.20;;;;;;5093429;28;20045;-70
2022/03/19 02:51:04;;;;;;;22.13;11.73;;;8.50;94.30;;;;;;5093534;28;20054;-71
2022/03/19 02:54:10;;;;;;;18.05;10.50;;;8.40;94.40;;;;;;5093077;28;20396;-71
2022/03/19 02:57:14;;;;;;;19.80;11.63;;;8.30;94.10;;;;;;5093213;28;20069;-70
2022/03/19 03:00:19;;;;;;;27.58;12.35;;;8.30;94.30;;;;;;5093207;28;20051;-72
2022/03/19 03:03:23;;;;;;;20.30;10.75;;;8.20;94.40;;;;;;5092962;28;20047;-71
2022/03/19 03:06:28;;;;;;;21.25;11.23;;;8.40;92.90;;;;;;5092412;28;20051;-70
2022/03/19 03:09:33;;;;;;;27.17;10.98;;;8.80;92.10;;;;;;5091641;28;20406;-70
2022/03/19 03:12:37;;;;;;;24.13;11.48;;;8.90;92.60;;;;;;5092722;28;20043;-70
2022/03/19 03:15:41;;;;;;;22.83;11.60;;;8.90;92.90;;;;;;5092998;28;20458;-70
2022/03/19 03:18:46;;;;;;;22.80;11.68;;;8.80;93.50;;;;;;5092573;28;20051;-71
2022/03/19 03:21:50;;;;;;;23.00;10.60;;;8.60;94.00;;;;;;5092901;28;20493;-71
2022/03/19 03:24:54;;;;;;;20.65;11.85;;;8.50;94.00;;;;;;5092495;28;20046;-69
2022/03/19 03:27:58;;;;;;;19.80;11.35;;;8.40;94.00;;;;;;5092614;28;20039;-70
2022/03/19 03:31:02;;;;;;;23.08;11.02;;;8.60;92.80;;;;;;5092274;28;20035;-70
2022/03/19 03:34:06;;;;;;;23.52;11.75;;;8.60;93.00;;;;;;5092497;28;20043;-70
2022/03/19 03:37:10;;;;;;;18.55;11.18;;;8.70;93.20;;;;;;5092647;28;20043;-70
2022/03/19 03:40:14;;;;;;;25.90;12.48;;;8.60;93.50;;;;;;5091835;28;20039;-70
2022/03/19 03:43:18;;;;;;;22.42;11.32;;;8.50;93.40;;;;;;5092620;28;20066;-70
2022/03/19 03:46:22;;;;;;;18.35;10.52;;;8.50;93.20;;;;;;5092488;28;20039;-70
2022/03/19 03:49:26;;;;;;;20.48;9.75;;;8.90;92.10;;;;;;5092062;28;20047;-71
2022/03/19 03:52:30;;;;;;;24.90;10.48;;;8.90;92.80;;;;;;5092308;28;20055;-71
2022/03/19 03:55:36;;;;;;;21.02;9.98;;;8.90;92.40;;;;;;5092481;28;20046;-71
2022/03/19 03:58:40;;;;;;;20.48;10.60;;;8.80;93.30;;;;;;5092391;28;20395;-71
2022/03/19 04:01:44;;;;;;;21.17;10.50;;;8.70;94.10;;;;;;5092001;28;20051;-71
2022/03/19 04:04:48;;;;;;;28.60;12.43;;;8.60;93.50;;;;;;5091671;28;20066;-70
2022/03/19 04:07:54;;;;;;;19.25;10.88;;;8.60;91.90;;;;;;5091967;28;20055;-71
2022/03/19 04:10:58;;;;;;;19.40;10.48;;;8.70;92.50;;;;;;5092693;28;20036;-71
2022/03/19 04:14:03;;;;;;;23.85;11.07;;;8.50;94.00;;;;;;5091804;28;20493;-71
2022/03/19 04:17:07;;;;;;;18.15;9.18;;;8.60;91.40;;;;;;5091467;28;20050;-71
2022/03/19 04:20:13;;;;;;;16.75;9.40;;;8.80;91.30;;;;;;5091330;28;20045;-71
2022/03/19 04:23:17;;;;;;;27.02;11.40;;;8.90;92.40;;;;;;5091989;28;20502;-72
2022/03/19 04:26:21;;;;;;;20.23;10.10;;;8.70;93.30;;;;;;5091465;28;20055;-71
2022/03/19 04:29:25;;;;;;;20.60;9.80;;;8.80;90.90;;;;;;5091198;28;20339;-71
2022/03/19 04:32:29;;;;;;;20.73;9.98;;;9.00;90.60;;;;;;5091442;28;20047;-70
2022/03/19 04:38:58;;;;;;;18.80;10.55;;;8.90;92.20;;;;;;5091757;28;20050;-72
2022/03/19 04:42:07;;;;;;;19.88;10.57;;;8.70;92.80;;;;;;5090724;28;20047;-71
2022/03/19 04:45:11;;;;;;;17.00;9.98;;;8.60;92.80;;;;;;5090398;28;20043;-72
2022/03/19 04:48:17;;;;;;;17.45;9.57;;;8.60;91.80;;;;;;5090770;28;20047;-71
2022/03/19 04:51:27;;;;;;;17.65;10.35;;;8.80;91.20;;;;;;5090985;28;20043;-71
2022/03/19 04:54:31;;;;;;;22.15;10.70;;;8.70;92.50;;;;;;5091886;28;20051;-72
2022/03/19 04:57:35;;;;;;;20.80;10.20;;;8.50;92.40;;;;;;5091616;28;20046;-71
2022/03/19 05:00:39;;;;;;;20.02;11.45;;;8.80;91.40;;;;;;5091138;28;20059;-72
2022/03/19 05:03:43;;;;;;;18.52;10.77;;;8.70;91.70;;;;;;5091519;28;20501;-72
2022/03/19 05:06:47;;;;;;;17.25;9.93;;;8.70;91.20;;;;;;5091186;28;20055;-71
2022/03/19 05:13:16;;;;;;;19.67;9.00;;;8.80;91.10;;;;;;5090002;28;20047;-71
2022/03/19 05:16:19;;;;;;;18.17;10.35;;;8.90;90.30;;;;;;5091547;28;20054;-71
2022/03/19 05:19:24;;;;;;;16.70;8.85;;;8.90;90.30;;;;;;5090559;28;20050;-72
2022/03/19 05:22:30;;;;;;;20.58;10.20;;;9.20;89.70;;;;;;5090523;28;20415;-71
2022/03/19 05:25:34;;;;;;;17.48;9.82;;;9.00;90.90;;;;;;5090482;28;20047;-72
2022/03/19 05:28:38;;;;;;;21.35;10.38;;;8.90;90.40;;;;;;5089962;28;20043;-72
2022/03/19 05:31:42;;;;;;;18.88;9.60;;;9.00;89.90;;;;;;5090109;28;20378;-71
2022/03/19 05:34:46;;;;;;;18.35;9.40;;;9.00;90.50;;;;;;5090238;28;20059;-72
2022/03/19 05:37:50;;;;;;;26.83;11.05;;;9.00;90.40;;;;;;5090787;28;20383;-71
2022/03/19 05:40:54;;;;;;;22.52;10.55;;;9.00;91.00;;;;;;5090321;28;20051;-71
2022/03/19 05:43:58;;;;;;;20.70;11.57;;;8.90;91.50;;;;;;5090335;28;20047;-71
2022/03/19 05:47:03;;;;;;;18.42;10.05;;;8.70;92.10;;;;;;5090720;28;20509;-72
2022/03/19 05:50:07;;;;;;;18.80;9.18;;;8.70;90.50;;;;;;5089735;28;20055;-71
2022/03/19 05:53:12;;;;;;;16.17;9.27;;;9.00;90.30;;;;;;5094295;28;20304;-71
2022/03/19 05:56:17;;;;;;;16.50;9.88;;;9.00;91.10;;;;;;5094624;28;20521;-71
2022/03/19 05:59:23;;;;;;;19.50;10.73;;;8.70;92.60;;;;;;5094200;28;20051;-71
2022/03/19 06:02:27;;;;;;;24.45;11.20;;;8.70;92.50;;;;;;5094371;28;20050;-71
2022/03/19 06:05:31;;;;;;;18.67;9.93;;;8.70;92.80;;;;;;5094162;28;20043;-72
2022/03/19 06:08:35;;;;;;;16.35;9.45;;;8.60;93.20;;;;;;5093323;28;20035;-71
2022/03/19 06:11:42;;;;;;;17.55;9.88;;;8.80;90.10;;;;;;5095093;28;20043;-71
2022/03/19 06:14:46;;;;;;;18.75;9.52;;;9.00;89.90;;;;;;5093764;28;20035;-72
2022/03/19 06:17:50;;;;;;;22.40;10.48;;;9.30;87.90;;;;;;5094513;28;20039;-71
2022/03/19 06:20:56;;;;;;;16.55;9.05;;;9.40;89.20;;;;;;5095097;28;20047;-71
2022/03/19 06:23:59;;;;;;;18.00;9.57;;;9.40;91.20;;;;;;5093744;28;20047;-71
2022/03/19 06:27:04;;;;;;;18.50;9.38;;;9.40;91.90;;;;;;5094147;28;20051;-71
2022/03/19 06:30:09;;;;;;;21.42;10.30;;;9.40;91.40;;;;;;5095165;28;20055;-71
2022/03/19 06:33:13;;;;;;;19.98;9.88;;;9.40;92.20;;;;;;5093828;28;20066;-71
2022/03/19 06:39:39;;;;;;;17.40;9.35;;;9.60;92.60;;;;;;5093525;28;20042;-71
2022/03/19 06:42:43;;;;;;;17.38;9.98;;;9.70;93.00;;;;;;5093767;28;20051;-71
2022/03/19 06:45:47;;;;;;;17.25;9.18;;;9.80;93.10;;;;;;5093446;28;20070;-71
2022/03/19 06:48:52;;;;;;;17.65;9.80;;;9.90;93.30;;;;;;5093152;28;20047;-72
2022/03/19 06:51:57;;;;;;;15.13;9.80;;;9.90;93.70;;;;;;5093441;28;20046;-71
2022/03/19 06:55:02;;;;;;;22.52;10.45;;;10.10;93.90;;;;;;5093536;28;20047;-70
2022/03/19 06:58:06;;;;;;;18.15;9.95;;;10.10;94.30;;;;;;5092644;28;20043;-71
2022/03/19 07:01:15;;;;;;;23.08;10.18;;;10.30;93.90;;;;;;5093180;28;20398;-71
2022/03/19 07:04:18;;;;;;;18.10;9.30;;;10.60;93.00;;;;;;5092212;28;20043;-71
2022/03/19 07:07:22;;;;;;;20.58;9.73;;;10.70;89.50;;;;;;5093034;28;20047;-71
2022/03/19 07:10:27;;;;;;;20.17;8.75;;;11.10;91.60;;;;;;5093100;28;20043;-71
2022/03/19 07:13:31;;;;;;;21.92;9.73;;;11.50;92.10;;;;;;5092587;28;20502;-71
2022/03/19 07:16:36;;;;;;;19.08;10.00;;;11.60;92.40;;;;;;5092875;28;20520;-71
2022/03/19 07:19:41;;;;;;;17.05;9.52;;;11.10;92.40;;;;;;5092659;28;20059;-71
2022/03/19 07:22:51;;;;;;;19.90;9.38;;;11.00;92.50;;;;;;5092742;28;20125;-71
2022/03/19 07:25:59;;;;;;;17.63;9.18;;;11.30;93.50;;;;;;5092632;28;20043;-71
2022/03/19 07:29:03;;;;;;;19.85;9.68;;;12.00;93.10;;;;;;5092828;28;20039;-71
2022/03/19 07:32:08;;;;;;;20.75;9.30;;;12.60;92.30;;;;;;5092341;28;20051;-71
2022/03/19 07:35:14;;;;;;;17.05;8.73;;;13.30;92.20;;;;;;5092830;28;20047;-71
2022/03/19 07:38:19;;;;;;;14.18;8.55;;;14.00;91.00;;;;;;5091891;28;20043;-72
2022/03/19 07:44:45;;;;;;;16.83;9.27;;;14.50;91.00;;;;;;5092064;28;20047;-71
2022/03/19 07:47:49;;;;;;;18.95;8.93;;;15.20;90.70;;;;;;5092417;28;20494;-71
2022/03/19 07:50:54;;;;;;;16.75;8.52;;;15.50;90.10;;;;;;5092324;28;20047;-72
2022/03/19 07:53:58;;;;;;;20.35;9.07;;;15.90;89.40;;;;;;5092182;28;20055;-71
2022/03/19 07:57:07;;;;;;;14.38;8.48;;;15.50;89.40;;;;;;5092069;28;20498;-72
2022/03/19 08:00:13;;;;;;;18.90;8.70;;;16.20;79.20;;;;;;5093798;28;20043;-72
2022/03/19 08:03:19;;;;;;;13.48;8.43;;;16.20;78.00;;;;;;5091901;28;20047;-72
2022/03/19 08:06:25;;;;;;;11.70;7.70;;;16.10;77.40;;;;;;5091566;28;20047;-71
2022/03/19 08:09:29;;;;;;;16.35;8.15;;;17.30;80.70;;;;;;5091464;28;20043;-71
2022/03/19 08:12:33;;;;;;;17.05;8.23;;;18.60;78.50;;;;;;5091671;28;20035;-72
2022/03/19 08:15:41;;;;;;;17.17;9.25;;;19.70;79.50;;;;;;5091500;28;20063;-70
2022/03/19 08:18:45;;;;;;;17.65;8.82;;;20.50;78.70;;;;;;5091425;28;20039;-72
2022/03/19 08:21:50;;;;;;;14.70;8.15;;;19.40;77.30;;;;;;5091548;28;20513;-72
2022/03/19 08:24:55;;;;;;;14.00;8.15;;;19.90;77.30;;;;;;5090894;28;20406;-72
2022/03/19 08:28:00;;;;;;;16.92;8.23;;;20.00;75.90;;;;;;5091011;28;20035;-72
2022/03/19 08:31:04;;;;;;;12.88;8.05;;;21.00;69.30;;;;;;5091190;28;20051;-72
2022/03/19 08:34:08;;;;;;;11.15;7.43;;;21.40;69.50;;;;;;5090780;28;20051;-72
2022/03/19 08:37:13;;;;;;;12.18;7.57;;;22.90;67.00;;;;;;5091443;28;20043;-73
2022/03/19 08:40:17;;;;;;;11.52;7.45;;;23.90;63.90;;;;;;5090756;28;20040;-72
2022/03/19 08:43:22;;;;;;;10.60;7.72;;;23.20;61.40;;;;;;5090997;28;20066;-73
2022/03/19 08:46:26;;;;;;;12.43;8.10;;;23.40;63.10;;;;;;5090731;28;20509;-72
2022/03/19 08:49:30;;;;;;;13.88;7.80;;;24.10;63.00;;;;;;5090314;28;20043;-72
2022/03/19 08:52:36;;;;;;;12.98;7.80;;;24.30;63.60;;;;;;5090763;28;20489;-72
2022/03/19 08:55:41;;;;;;;14.05;7.97;;;25.00;66.30;;;;;;5090360;28;20059;-72
2022/03/19 08:58:45;;;;;;;12.90;7.57;;;25.80;65.10;;;;;;5090114;28;20625;-70
2022/03/19 09:01:51;;;;;;;15.18;7.70;;;26.40;61.50;;;;;;5090838;28;20066;-70
2022/03/19 09:04:55;;;;;;;12.85;7.53;;;25.80;57.90;;;;;;5090353;28;20051;-73
2022/03/19 09:07:59;;;;;;;11.07;7.35;;;26.20;58.20;;;;;;5090290;28;20047;-71
2022/03/19 09:11:03;;;;;;;11.70;7.70;;;23.30;57.70;;;;;;5090254;28;20043;-72
2022/03/19 09:14:08;;;;;;;15.40;7.32;;;24.70;62.00;;;;;;5090096;28;20042;-72
2022/03/19 09:17:12;;;;;;;13.60;8.20;;;25.00;60.90;;;;;;5090603;28;20051;-71
2022/03/19 09:20:16;;;;;;;12.02;6.85;;;25.80;60.00;;;;;;5089703;28;20043;-72
2022/03/19 09:23:20;;;;;;;11.98;7.07;;;26.50;57.50;;;;;;5090549;28;20047;-72
2022/03/19 09:26:25;;;;;;;10.95;7.50;;;28.10;55.20;;;;;;5089585;28;20039;-72
2022/03/19 09:29:29;;;;;;;24.85;7.20;;;29.40;54.20;;;;;;5089126;28;20051;-72
2022/03/19 09:32:33;;;;;;;10.02;6.68;;;30.00;54.10;;;;;;5090197;28;20043;-72
2022/03/19 09:35:37;;;;;;;13.25;6.65;;;30.40;54.80;;;;;;5089924;28;20529;-73
2022/03/19 09:38:42;;;;;;;11.40;6.90;;;31.50;51.70;;;;;;5089107;28;20497;-71
2022/03/19 09:41:46;;;;;;;9.38;5.95;;;32.70;50.70;;;;;;5090304;28;20043;-71
2022/03/19 09:44:52;;;;;;;9.93;6.28;;;33.50;49.80;;;;;;5089836;28;20047;-72
2022/03/19 09:47:56;;;;;;;10.90;6.93;;;32.60;46.80;;;;;;5089908;28;20048;-73
2022/03/19 09:51:00;;;;;;;18.08;6.88;;;27.90;49.30;;;;;;5090025;28;20036;-73
2022/03/19 09:54:04;;;;;;;12.73;6.70;;;28.00;49.70;;;;;;5090104;28;20505;-73
2022/03/19 09:57:08;;;;;;;12.88;7.25;;;28.90;48.50;;;;;;5089779;28;20050;-72
2022/03/19 10:00:13;;;;;;;11.07;6.93;;;25.80;49.20;;;;;;5089683;28;20059;-73
2022/03/19 10:03:22;;;;;;;15.25;7.70;;;26.40;48.50;;;;;;5089547;28;20397;-72
2022/03/19 10:09:48;;;;;;;11.88;6.25;;;27.70;48.70;;;;;;5089699;28;20486;-72
2022/03/19 10:12:53;;;;;;;9.48;6.13;;;29.50;48.20;;;;;;5090221;28;20055;-72
2022/03/19 10:15:57;;;;;;;12.15;7.07;;;29.90;47.90;;;;;;5089604;28;20314;-72
2022/03/19 10:19:06;;;;;;;11.68;6.75;;;29.10;49.10;;;;;;5089477;28;20047;-73
2022/03/19 10:22:10;;;;;;;11.68;6.95;;;28.50;48.40;;;;;;5089611;28;20031;-72
2022/03/19 10:25:18;;;;;;;13.07;7.90;;;22.70;52.10;;;;;;5089585;28;20050;-72
2022/03/19 10:28:32;;;;;;;10.68;7.30;;;22.00;55.00;;;;;;5088510;28;20098;-72
2022/03/19 10:31:44;;;;;;;12.15;7.65;;;22.40;55.60;;;;;;5089580;28;20051;-72
2022/03/19 10:34:48;;;;;;;12.73;7.38;;;25.30;52.60;;;;;;5089379;28;20035;-72
2022/03/19 10:37:53;;;;;;;15.15;7.40;;;25.90;50.40;;;;;;5089868;28;20043;-72
2022/03/19 10:41:03;;;;;;;11.05;7.70;;;23.90;51.80;;;;;;5093254;28;20043;-73
2022/03/19 10:44:19;;;;;;;12.00;7.22;;;22.30;54.20;;;;;;5093175;28;20125;-72
2022/03/19 10:47:23;;;;;;;12.77;7.45;;;22.60;54.40;;;;;;5092901;28;20390;-72
2022/03/19 10:50:27;;;;;;;15.38;7.90;;;20.80;54.60;;;;;;5092634;28;20146;-72
2022/03/19 10:53:31;;;;;;;12.20;7.60;;;22.20;54.80;;;;;;5092917;28;20387;-73
2022/03/19 10:56:35;;;;;;;12.05;7.50;;;24.90;52.80;;;;;;5092292;28;20375;-72
2022/03/19 10:59:40;;;;;;;10.90;6.78;;;23.60;52.60;;;;;;5092304;28;20398;-72
2022/03/19 11:02:47;;;;;;;12.50;7.07;;;25.10;52.50;;;;;;5092580;28;20494;-72
2022/03/19 11:06:02;;;;;;;14.80;7.28;;;25.70;50.80;;;;;;5092432;28;20055;-71
2022/03/19 11:09:10;;;;;;;12.55;6.80;;;24.50;51.70;;;;;;5092378;28;20054;-72
2022/03/19 11:12:19;;;;;;;10.98;7.20;;;24.50;51.80;;;;;;5092413;28;20034;-72
2022/03/19 11:15:23;;;;;;;13.43;7.35;;;24.70;50.50;;;;;;5107269;28;20046;-72
2022/03/19 11:18:28;;;;;;;10.25;7.13;;;28.10;50.00;;;;;;5101205;28;20082;-72
2022/03/19 11:21:37;;;;;;;12.73;6.50;;;28.70;48.70;;;;;;5093183;28;20043;-72
2022/03/19 11:25:09;;;;;;;11.32;5.88;;;29.00;49.10;;;;;;5100353;28;20051;-72
2022/03/19 11:28:14;;;;;;;10.25;6.40;;;26.70;47.00;;;;;;5106050;28;20039;-72
2022/03/19 11:31:25;;;;;;;10.63;6.07;;;26.40;48.40;;;;;;5105320;28;20374;-72
2022/03/19 11:34:47;;;;;;;13.25;7.53;;;26.50;49.90;;;;;;5093100;28;20043;-72
2022/03/19 11:38:00;;;;;;;12.95;7.00;;;24.60;49.50;;;;;;5101341;28;20047;-72
2022/03/19 11:41:22;;;;;;;12.10;7.32;;;23.60;51.60;;;;;;5107375;28;20059;-72
2022/03/19 11:44:30;;;;;;;11.75;6.75;;;23.30;51.40;;;;;;5101341;28;20035;-72
2022/03/19 11:47:34;;;;;;;12.10;6.85;;;25.40;49.90;;;;;;5098437;28;20046;-72
2022/03/19 11:50:42;;;;;;;12.73;6.93;;;23.80;50.60;;;;;;5108237;28;20055;-72
2022/03/19 11:54:17;;;;;;;15.65;7.68;;;24.70;50.80;;;;;;5108769;28;20070;-72
2022/03/19 11:57:21;;;;;;;11.52;6.75;;;23.80;50.50;;;;;;5091413;28;20402;-72
2022/03/19 12:00:27;;;;;;;11.13;6.78;;;25.90;50.50;;;;;;5091724;28;20118;-72
2022/03/19 12:03:31;;;;;;;10.38;6.72;;;27.90;50.20;;;;;;5091841;28;20035;-73
2022/03/19 12:06:38;;;;;;;13.13;5.80;;;29.90;49.20;;;;;;5091316;28;20383;-70
2022/03/19 12:09:42;;;;;;;7.97;5.65;;;31.40;47.60;;;;;;5090826;28;20659;-72
2022/03/19 12:12:48;;;;;;;10.52;6.07;;;32.40;47.40;;;;;;5091466;28;20051;-72
2022/03/19 12:15:52;;;;;;;18.23;6.43;;;28.50;46.20;;;;;;5091477;28;20051;-71
2022/03/19 12:18:56;;;;;;;9.32;5.95;;;26.80;48.60;;;;;;5091123;28;20489;-72
2022/03/19 12:22:00;;;;;;;10.65;6.20;;;28.60;47.20;;;;;;5091591;28;20047;-72
2022/03/19 12:25:06;;;;;;;12.68;6.65;;;29.00;47.80;;;;;;5091742;28;20493;-72
2022/03/19 12:28:15;;;;;;;9.77;6.35;;;26.90;46.60;;;;;;5090876;28;20493;-72
2022/03/19 12:31:20;;;;;;;12.20;6.75;;;27.30;47.90;;;;;;5090408;28;20055;-72
2022/03/19 12:34:26;;;;;;;11.48;5.97;;;27.30;47.80;;;;;;5091285;28;20041;-73
2022/03/19 12:37:31;;;;;;;8.98;5.60;;;30.40;45.70;;;;;;5091161;28;20394;-72
2022/03/19 12:44:10;;;;;;;9.80;6.13;;;30.50;46.30;;;;;;5091438;28;20046;-71
2022/03/19 12:47:16;;;;;;;9.57;6.05;;;30.20;45.90;;;;;;5091295;28;20047;-72
2022/03/19 12:50:20;;;;;;;11.15;6.38;;;28.50;46.60;;;;;;5090782;28;20043;-72
2022/03/19 12:53:35;;;;;;;11.48;6.20;;;28.20;48.00;;;;;;5090135;28;20047;-72
2022/03/19 12:56:40;;;;;;;12.98;6.65;;;27.80;46.80;;;;;;5090979;28;20051;-71
2022/03/19 12:59:57;;;;;;;12.27;6.68;;;28.30;47.20;;;;;;5090420;28;20039;-72
2022/03/19 13:03:01;;;;;;;16.92;6.95;;;27.60;48.20;;;;;;5090769;28;20035;-72
2022/03/19 13:06:05;;;;;;;10.60;6.28;;;27.00;47.90;;;;;;5090465;28;20521;-71
2022/03/19 13:09:11;;;;;;;8.90;6.20;;;26.50;48.80;;;;;;5090610;28;20067;-71
2022/03/19 13:12:23;;;;;;;11.45;5.97;;;26.40;48.40;;;;;;5090920;28;20426;-72
2022/03/19 13:15:26;;;;;;;;;;;27.00;48.80;;;;;;5091143;28;20055;-72
2022/03/19 13:18:35;;;;;;;21.27;6.85;;;27.60;48.20;;;;;;5090031;28;20402;-71
2022/03/19 13:21:41;;;;;;;11.50;6.38;;;27.60;49.60;;;;;;5091176;28;20047;-72
2022/03/19 13:24:49;;;;;;;16.25;6.93;;;27.00;47.90;;;;;;5090429;28;20047;-72
2022/03/19 13:27:53;;;;;;;19.08;7.32;;;26.50;48.40;;;;;;5090200;28;20051;-72
2022/03/19 13:30:59;;;;;;;10.55;7.20;;;25.50;49.50;;;;;;5090899;28;20089;-71
2022/03/19 13:34:05;;;;;;;11.13;7.07;;;24.80;49.80;;;;;;5090412;28;20087;-71
2022/03/19 13:37:14;;;;;;;13.18;7.90;;;24.80;49.20;;;;;;5090577;28;20039;-72
2022/03/19 13:40:19;;;;;;;17.25;6.97;;;24.30;50.90;;;;;;5089867;28;20043;-71
2022/03/19 13:43:36;;;;;;;11.82;7.30;;;24.10;50.70;;;;;;5089298;28;20039;-71
2022/03/19 13:46:41;;;;;;;11.95;6.65;;;24.50;50.50;;;;;;5091012;28;20051;-72
2022/03/19 13:49:47;;;;;;;11.93;6.55;;;25.30;49.90;;;;;;5090031;28;20047;-63
2022/03/19 13:52:58;;;;;;;15.98;7.55;;;25.20;49.10;;;;;;5090635;28;20169;-64
2022/03/19 13:56:05;;;;;;;16.33;7.47;;;24.80;50.10;;;;;;5090259;28;20048;-62
2022/03/19 13:59:09;;;;;;;12.88;7.72;;;24.80;49.70;;;;;;5089996;28;20489;-63
2022/03/19 14:02:13;;;;;;;10.82;6.00;;;24.90;49.00;;;;;;5090798;28;20386;-64
2022/03/19 14:05:24;;;;;;;11.57;6.90;;;24.90;49.90;;;;;;5090590;28;20328;-64
2022/03/19 14:08:28;;;;;;;18.08;7.57;;;25.20;48.90;;;;;;5090184;28;20066;-63
2022/03/19 14:11:40;;;;;;;14.95;7.10;;;24.80;50.10;;;;;;5091287;28;20044;-66
2022/03/19 14:14:51;;;;;;;11.98;7.35;;;24.10;50.00;;;;;;5094627;28;20035;-64
2022/03/19 14:17:58;;;;;;;18.43;7.30;;;24.10;49.90;;;;;;5094016;28;20390;-62
2022/03/19 14:21:05;;;;;;;13.00;7.60;;;24.30;50.40;;;;;;5094030;28;20051;-66
2022/03/19 14:24:09;;;;;;;11.18;7.85;;;23.80;50.60;;;;;;5092422;28;20047;-65
2022/03/19 14:27:14;;;;;;;18.50;8.20;;;23.60;50.70;;;;;;5093406;28;20047;-64
2022/03/19 14:30:18;;;;;;;13.63;7.60;;;22.90;51.10;;;;;;5093646;28;20043;-64
2022/03/19 14:33:25;;;;;;;15.35;8.35;;;22.30;52.00;;;;;;5094180;28;20497;-65
2022/03/19 14:36:29;;;;;;;16.55;9.15;;;22.10;52.50;;;;;;5093567;28;20047;-65
2022/03/19 14:39:33;;;;;;;22.98;9.95;;;21.60;53.20;;;;;;5093675;28;20039;-66
2022/03/19 14:42:36;;;;;;;15.02;8.77;;;21.50;53.80;;;;;;5093656;28;20051;-64
2022/03/19 14:45:50;;;;;;;16.10;9.23;;;20.90;54.90;;;;;;5093864;28;20043;-64
2022/03/19 14:48:54;;;;;;;17.42;9.13;;;20.20;55.50;;;;;;5092911;28;20036;-64
2022/03/19 14:51:58;;;;;;;20.10;9.27;;;19.50;56.00;;;;;;5093430;28;20090;-63
2022/03/19 14:55:02;;;;;;;19.77;9.18;;;18.80;56.80;;;;;;5093446;28;20051;-65
2022/03/19 14:58:06;;;;;;;15.68;8.55;;;18.50;57.30;;;;;;5092672;28;20051;-64
2022/03/19 15:01:12;;;;;;;16.55;8.95;;;18.20;58.50;;;;;;5092082;28;20043;-63
2022/03/19 15:04:15;;;;;;;25.73;10.48;;;17.80;59.30;;;;;;5092996;28;20043;-64
2022/03/19 15:07:20;;;;;;;17.27;8.85;;;17.50;59.90;;;;;;5092622;28;20043;-63
2022/03/19 15:10:30;;;;;;;25.45;9.85;;;17.20;60.10;;;;;;5092384;28;20043;-64
2022/03/19 15:13:34;;;;;;;19.92;9.07;;;16.60;61.20;;;;;;5093215;28;20063;-64
2022/03/19 15:16:40;;;;;;;17.67;8.45;;;16.30;62.00;;;;;;5091673;28;20043;-63
2022/03/19 15:19:44;;;;;;;19.80;9.18;;;16.40;62.10;;;;;;5091796;28;20043;-64
2022/03/19 15:22:48;;;;;;;19.50;9.50;;;16.20;62.00;;;;;;5093175;28;20478;-63
2022/03/19 15:25:53;;;;;;;16.33;9.20;;;16.10;62.30;;;;;;5091968;28;20047;-65
2022/03/19 15:28:57;;;;;;;18.83;9.80;;;15.70;62.70;;;;;;5092249;28;20059;-65
2022/03/19 15:32:02;;;;;;;13.43;8.52;;;15.60;63.60;;;;;;5092557;28;20422;-65
2022/03/19 15:35:08;;;;;;;14.23;9.73;;;15.80;63.50;;;;;;5092513;28;20042;-65
2022/03/19 15:38:12;;;;;;;17.42;9.07;;;15.50;64.80;;;;;;5092482;28;20055;-65
2022/03/19 15:41:22;;;;;;;26.45;9.07;;;15.40;64.60;;;;;;5092670;28;20406;-66
2022/03/19 15:44:26;;;;;;;15.65;8.68;;;15.20;65.40;;;;;;5092917;28;20047;-64
2022/03/19 15:47:29;;;;;;;13.38;8.23;;;15.30;65.00;;;;;;5093075;28;20378;-64
2022/03/19 15:50:34;;;;;;;20.42;9.25;;;15.00;65.50;;;;;;5092201;28;20046;-64
2022/03/19 15:53:39;;;;;;;14.93;8.10;;;14.70;66.10;;;;;;5092445;28;20054;-64
2022/03/19 15:56:43;;;;;;;17.48;8.82;;;14.70;66.80;;;;;;5092087;28;20051;-64
2022/03/19 15:59:46;;;;;;;16.25;8.50;;;14.60;66.00;;;;;;5091591;28;20043;-65
2022/03/19 16:02:51;;;;;;;18.75;8.88;;;14.30;66.00;;;;;;5092050;28;20043;-64
2022/03/19 16:05:56;;;;;;;21.88;9.20;;;14.20;66.90;;;;;;5091525;28;20058;-63
2022/03/19 16:09:00;;;;;;;22.48;9.32;;;14.00;67.40;;;;;;5092036;28;20051;-65
2022/03/19 16:12:04;;;;;;;19.67;9.90;;;13.80;68.10;;;;;;5092266;28;20043;-63
2022/03/19 16:15:10;;;;;;;22.15;11.75;;;13.60;68.30;;;;;;5091957;28;20075;-65
2022/03/19 16:18:14;;;;;;;20.33;9.23;;;13.50;69.20;;;;;;5090816;28;20055;-64